Time;durP1;ratioP1;P1;durP2;ratioP2;P2;SDS_P1;SDS_P2;PMS_P1;PMS_P2;Temp;Humidity;BMP_temperature;BMP_pressure;BME280_temperature;BME280_humidity;BME280_pressure;Samples;Min_cycle;Max_cycle;Signal;HPM_P1;HPM_P2
2023/09/23 00:01:57;;;;;;;;;;;;;;;19.42;54.48;96595.56;4233237;28;5730;-65
2023/09/23 00:04:00;;;;;;;;;;;;;;;19.42;54.61;96598.25;4233135;28;5734;-65
2023/09/23 00:06:03;;;;;;;;;;;;;;;19.42;54.67;96596.38;4232541;28;5693;-65
2023/09/23 00:08:06;;;;;;;;;;;;;;;19.44;54.51;96596.13;4233384;28;5783;-65
2023/09/23 00:10:10;;;;;;;;;;;;;;;19.46;54.84;96599.34;4233203;27;5775;-65
2023/09/23 00:12:15;;;;;;;;;;;;;;;19.41;54.47;96597.44;4233319;28;5602;-65
2023/09/23 00:14:17;;;;;;;;;;;;;;;19.36;54.48;96594.69;4233246;27;5821;-66
2023/09/23 00:16:21;;;;;;;;;;;;;;;19.38;54.66;96595.28;4233202;28;5769;-65
2023/09/23 00:18:26;;;;;;;;;;;;;;;19.39;54.56;96601.44;4233166;28;5644;-65
2023/09/23 00:20:29;;;;;;;;;;;;;;;19.37;54.58;96593.66;4232998;28;5627;-65
2023/09/23 00:22:32;;;;;;;;;;;;;;;19.37;54.83;96592.84;4232825;28;5610;-65
2023/09/23 00:24:35;;;;;;;;;;;;;;;19.38;54.70;96602.53;4233005;28;5648;-65
2023/09/23 00:26:37;;;;;;;;;;;;;;;19.41;54.77;96593.97;4232925;28;5766;-65
2023/09/23 00:28:40;;;;;;;;;;;;;;;19.41;54.71;96594.78;4233125;28;5771;-65
2023/09/23 00:30:45;;;;;;;;;;;;;;;19.41;54.87;96597.44;4232802;28;5755;-66
2023/09/23 00:32:49;;;;;;;;;;;;;;;19.41;54.61;96593.97;4233215;28;5766;-65
2023/09/23 00:34:53;;;;;;;;;;;;;;;19.42;54.72;96601.75;4232700;28;5685;-65
2023/09/23 00:36:56;;;;;;;;;;;;;;;19.42;54.75;96600.94;4232896;28;5657;-65
2023/09/23 00:39:02;;;;;;;;;;;;;;;19.43;54.81;96603.34;4232507;28;6323;-65
2023/09/23 00:41:06;;;;;;;;;;;;;;;19.42;54.80;96600.94;4232866;28;5610;-65
2023/09/23 00:43:13;;;;;;;;;;;;;;;19.38;54.95;96595.28;4232487;28;5586;-65
2023/09/23 00:45:17;;;;;;;;;;;;;;;19.37;54.85;96601.72;4225779;28;6360;-65
2023/09/23 00:47:20;;;;;;;;;;;;;;;19.36;54.67;96607.28;4232163;28;5743;-65
2023/09/23 00:49:24;;;;;;;;;;;;;;;19.38;54.68;96610.56;4233037;28;5771;-64
2023/09/23 00:51:30;;;;;;;;;;;;;;;19.38;54.97;96606.00;4224294;28;5598;-64
2023/09/23 00:53:35;;;;;;;;;;;;;;;19.43;54.83;96608.72;4232664;28;5590;-65
2023/09/23 00:55:42;;;;;;;;;;;;;;;19.45;54.87;96614.63;4230884;28;5598;-64
2023/09/23 00:57:48;;;;;;;;;;;;;;;19.46;54.73;96612.75;4228315;28;5828;-64
2023/09/23 00:59:50;;;;;;;;;;;;;;;19.45;54.47;96613.81;4233846;28;5598;-64
2023/09/23 01:01:56;;;;;;;;;;;;;;;19.42;54.18;96620.50;4233551;28;5643;-64
2023/09/23 01:03:59;;;;;;;;;;;;;;;19.29;53.25;96617.44;4233859;28;5811;-64
2023/09/23 01:06:08;;;;;;;;;;;;;;;19.14;53.48;96618.06;4231050;28;5609;-64
2023/09/23 01:08:25;;;;;;;;;;;;;;;19.10;53.71;96623.13;4231833;28;5647;-64
2023/09/23 01:10:28;;;;;;;;;;;;;;;19.12;53.73;96623.66;4235830;28;5744;-65
2023/09/23 01:12:31;;;;;;;;;;;;;;;19.09;53.38;96624.19;4236691;28;5605;-65
2023/09/23 01:14:34;;;;;;;;;;;;;;;19.10;53.56;96625.00;4236239;28;5642;-64
2023/09/23 01:16:38;;;;;;;;;;;;;;;19.10;53.40;96623.13;4236821;28;5657;-64
2023/09/23 01:18:45;;;;;;;;;;;;;;;19.11;53.26;96631.97;4237416;28;5829;-64
2023/09/23 01:20:50;;;;;;;;;;;;;;;19.14;53.31;96634.13;4234301;28;5602;-64
2023/09/23 01:22:57;;;;;;;;;;;;;;;19.13;52.98;96636.00;4232409;28;6200;-64
2023/09/23 01:25:01;;;;;;;;;;;;;;;19.13;52.65;96636.00;4232119;28;5756;-63
2023/09/23 01:27:03;;;;;;;;;;;;;;;19.10;52.44;96631.16;4229513;28;5713;-64
2023/09/23 01:29:07;;;;;;;;;;;;;;;19.10;52.62;96631.16;4228037;28;5860;-64
2023/09/23 01:31:11;;;;;;;;;;;;;;;19.10;52.44;96631.16;4229979;28;5739;-64
2023/09/23 01:33:14;;;;;;;;;;;;;;;19.08;52.34;96630.59;4231436;28;5633;-64
2023/09/23 01:35:20;;;;;;;;;;;;;;;19.07;52.33;96637.03;4230911;28;5781;-64
2023/09/23 01:37:23;;;;;;;;;;;;;;;19.09;52.30;96640.25;4230193;28;5594;-65
2023/09/23 01:39:27;;;;;;;;;;;;;;;19.07;52.08;96642.38;4226960;28;5768;-64
2023/09/23 01:41:30;;;;;;;;;;;;;;;19.02;52.03;96631.59;4230943;28;5788;-65
2023/09/23 01:43:33;;;;;;;;;;;;;;;18.98;52.12;96635.84;4226089;28;7684;-65
2023/09/23 01:45:35;;;;;;;;;;;;;;;18.94;52.00;96637.41;4229045;28;5815;-65
2023/09/23 01:47:38;;;;;;;;;;;;;;;18.87;51.82;96632.22;4231461;28;6617;-65
2023/09/23 01:49:42;;;;;;;;;;;;;;;18.82;52.06;96639.41;4231504;28;5617;-65
2023/09/23 01:51:46;;;;;;;;;;;;;;;18.77;52.18;96642.00;4229493;28;5605;-66
2023/09/23 01:53:49;;;;;;;;;;;;;;;18.78;52.04;96640.94;4229332;28;5768;-66
2023/09/23 01:55:53;;;;;;;;;;;;;;;18.78;51.80;96648.97;4231582;28;5594;-64
2023/09/23 01:57:57;;;;;;;;;;;;;;;18.67;51.90;96652.56;4228905;28;6017;-64
2023/09/23 02:00:00;;;;;;;;;;;;;;;18.62;52.07;96651.44;4229664;28;7664;-64
2023/09/23 02:02:04;;;;;;;;;;;;;;;18.61;52.06;96655.16;4230908;28;5758;-64
2023/09/23 02:04:08;;;;;;;;;;;;;;;18.62;52.04;96661.34;4230757;28;5678;-64
2023/09/23 02:06:11;;;;;;;;;;;;;;;18.61;51.90;96660.53;4229287;28;5764;-64
2023/09/23 02:08:15;;;;;;;;;;;;;;;18.62;51.98;96655.97;4224660;28;5664;-64
2023/09/23 02:10:17;;;;;;;;;;;;;;;18.57;52.11;96662.09;4230618;28;5817;-64
2023/09/23 02:12:23;;;;;;;;;;;;;;;18.57;52.08;96663.91;4229850;28;5613;-64
2023/09/23 02:14:26;;;;;;;;;;;;;;;18.56;51.90;96663.13;4218902;28;5091;-64
2023/09/23 02:16:29;;;;;;;;;;;;;;;18.53;51.93;96663.63;4229963;28;6313;-64
2023/09/23 02:18:35;;;;;;;;;;;;;;;18.54;51.86;96659.88;4226411;28;5602;-64
2023/09/23 02:20:40;;;;;;;;;;;;;;;18.50;51.68;96663.31;4229436;28;5756;-64
2023/09/23 02:22:42;;;;;;;;;;;;;;;18.48;51.86;96668.09;4230678;28;5672;-64
2023/09/23 02:24:46;;;;;;;;;;;;;;;18.48;51.64;96666.22;4227557;28;5873;-64
2023/09/23 02:26:49;;;;;;;;;;;;;;;18.51;51.83;96670.28;4228861;28;5590;-64
2023/09/23 02:28:53;;;;;;;;;;;;;;;18.54;51.58;96680.50;4230681;28;5787;-64
2023/09/23 02:30:56;;;;;;;;;;;;;;;18.53;51.58;96678.88;4227412;28;5594;-64
2023/09/23 02:32:59;;;;;;;;;;;;;;;18.52;51.66;96685.28;4227255;28;5723;-64
2023/09/23 02:35:02;;;;;;;;;;;;;;;18.49;51.55;96689.25;4230694;28;6409;-64
2023/09/23 02:37:05;;;;;;;;;;;;;;;18.44;51.62;96686.50;4230840;28;5590;-64
2023/09/23 02:39:13;;;;;;;;;;;;;;;18.44;51.68;96691.84;4225908;28;5737;-64
2023/09/23 02:41:16;;;;;;;;;;;;;;;18.43;51.71;96692.09;4227744;28;5677;-64
2023/09/23 02:43:20;;;;;;;;;;;;;;;18.44;51.65;96691.84;4229455;28;5629;-64
2023/09/23 02:45:24;;;;;;;;;;;;;;;18.45;51.64;96693.47;4225804;28;5924;-64
2023/09/23 02:47:27;;;;;;;;;;;;;;;18.42;51.65;96688.63;4226453;28;5574;-64
2023/09/23 02:49:32;;;;;;;;;;;;;;;18.42;51.54;96683.25;4228626;28;5740;-64
2023/09/23 02:51:35;;;;;;;;;;;;;;;18.45;51.66;96693.47;4229356;28;5610;-64
2023/09/23 02:53:37;;;;;;;;;;;;;;;18.46;51.43;96694.28;4221711;28;5606;-64
2023/09/23 02:55:43;;;;;;;;;;;;;;;18.39;51.47;96694.47;4231810;28;5632;-64
2023/09/23 02:57:49;;;;;;;;;;;;;;;18.38;51.41;96700.06;4228971;28;5652;-64
2023/09/23 02:59:57;;;;;;;;;;;;;;;18.38;51.54;96697.41;4230523;28;5693;-64
2023/09/23 03:02:01;;;;;;;;;;;;;;;18.39;51.64;96699.81;4225662;28;6051;-64
2023/09/23 03:04:16;;;;;;;;;;;;;;;18.42;51.56;96704.69;4228150;28;7148;-64
2023/09/23 03:06:19;;;;;;;;;;;;;;;18.46;51.58;96705.81;4228485;28;5799;-64
2023/09/23 03:08:22;;;;;;;;;;;;;;;18.48;51.80;96702.91;4230001;28;5594;-64
2023/09/23 03:10:31;;;;;;;;;;;;;;;18.47;51.73;96707.44;4225585;28;5590;-64
2023/09/23 03:12:40;;;;;;;;;;;;;;;18.46;51.50;96703.16;4226990;28;5110;-64
2023/09/23 03:14:45;;;;;;;;;;;;;;;18.48;51.43;96698.34;4227411;28;5862;-64
2023/09/23 03:16:50;;;;;;;;;;;;;;;18.42;51.40;96693.97;4229604;28;5733;-64
2023/09/23 03:19:10;;;;;;;;;;;;;;;18.38;51.43;96698.19;4225484;28;6001;-64
2023/09/23 03:21:13;;;;;;;;;;;;;;;18.30;51.68;96703.97;4226795;28;6448;-64
2023/09/23 03:23:16;;;;;;;;;;;;;;;18.31;51.58;96702.91;4227031;28;5598;-64
2023/09/23 03:25:20;;;;;;;;;;;;;;;18.34;51.58;96713.09;4228828;28;5769;-64
2023/09/23 03:27:28;;;;;;;;;;;;;;;18.37;51.70;96711.84;4227703;28;5704;-64
2023/09/23 03:29:32;;;;;;;;;;;;;;;18.40;51.70;96717.50;4227619;28;5618;-64
2023/09/23 03:31:35;;;;;;;;;;;;;;;18.40;51.73;96705.97;4229058;28;5601;-64
2023/09/23 03:33:38;;;;;;;;;;;;;;;18.37;51.88;96714.50;4227306;28;5693;-64
2023/09/23 03:35:41;;;;;;;;;;;;;;;18.36;52.03;96718.25;4226773;28;5755;-65
2023/09/23 03:37:49;;;;;;;;;;;;;;;18.31;52.13;96716.28;4226702;28;5849;-64
2023/09/23 03:39:52;;;;;;;;;;;;;;;18.26;52.30;96721.56;4208847;28;5825;-63
2023/09/23 03:41:56;;;;;;;;;;;;;;;18.24;52.33;96718.31;4228279;28;5800;-65
2023/09/23 03:43:59;;;;;;;;;;;;;;;18.18;52.40;96720.09;4228509;28;5796;-64
2023/09/23 03:46:02;;;;;;;;;;;;;;;18.13;52.51;96727.25;4227490;28;5849;-65
2023/09/23 03:48:07;;;;;;;;;;;;;;;18.15;52.58;96727.81;4224695;28;5728;-65
2023/09/23 03:50:10;;;;;;;;;;;;;;;18.14;52.48;96731.53;4223935;28;5722;-65
2023/09/23 03:52:14;;;;;;;;;;;;;;;18.13;52.52;96729.91;4227888;28;5103;-64
2023/09/23 03:54:17;;;;;;;;;;;;;;;18.15;52.67;96735.81;4229736;28;5744;-65
2023/09/23 03:56:24;;;;;;;;;;;;;;;18.14;52.62;96734.22;4227112;28;6363;-65
2023/09/23 03:58:27;;;;;;;;;;;;;;;18.14;52.66;96735.03;4229169;28;5598;-65
2023/09/23 04:00:33;;;;;;;;;;;;;;;18.14;52.63;96739.56;4223890;28;5866;-64
2023/09/23 04:02:37;;;;;;;;;;;;;;;18.15;52.49;96743.84;4225724;28;5632;-64
2023/09/23 04:04:40;;;;;;;;;;;;;;;18.15;52.58;96741.19;4209421;28;5651;-64
2023/09/23 04:06:43;;;;;;;;;;;;;;;18.16;52.54;96748.97;4211337;28;5784;-64
2023/09/23 04:09:10;;;;;;;;;;;;;;;18.19;52.60;96748.47;4226628;28;5597;-62
2023/09/23 04:11:15;;;;;;;;;;;;;;;18.21;52.21;96742.88;4227985;28;5611;-64
2023/09/23 04:13:39;;;;;;;;;;;;;;;18.21;52.39;96748.22;4226919;28;5701;-64
2023/09/23 04:15:42;;;;;;;;;;;;;;;18.19;52.32;96743.13;4224012;28;5811;-64
2023/09/23 04:17:45;;;;;;;;;;;;;;;18.21;52.47;96748.22;4223939;28;5950;-64
2023/09/23 04:19:48;;;;;;;;;;;;;;;18.20;52.06;96754.63;4223867;28;5610;-64
2023/09/23 04:21:52;;;;;;;;;;;;;;;18.18;52.11;96756.75;4223228;28;5607;-64
2023/09/23 04:23:54;;;;;;;;;;;;;;;18.17;52.06;96750.56;4227480;28;5661;-64
2023/09/23 04:25:59;;;;;;;;;;;;;;;18.19;52.09;96750.34;4227090;28;5665;-64
2023/09/23 04:28:03;;;;;;;;;;;;;;;18.20;52.05;96750.09;4224071;28;5677;-65
2023/09/23 04:30:09;;;;;;;;;;;;;;;18.21;52.06;96746.34;4229549;28;5604;-64
2023/09/23 04:32:12;;;;;;;;;;;;;;;18.23;52.00;96757.66;4225916;28;5601;-64
2023/09/23 04:34:17;;;;;;;;;;;;;;;18.24;51.90;96753.09;4227781;28;5788;-64
2023/09/23 04:36:21;;;;;;;;;;;;;;;18.21;51.83;96756.25;4225830;28;5618;-64
2023/09/23 04:38:24;;;;;;;;;;;;;;;18.21;51.84;96758.94;4224006;28;6389;-64
2023/09/23 04:40:27;;;;;;;;;;;;;;;18.22;51.78;96758.69;4222990;28;5789;-64
2023/09/23 04:42:31;;;;;;;;;;;;;;;18.23;51.58;96759.47;4227315;28;5613;-64
2023/09/23 04:44:34;;;;;;;;;;;;;;;18.22;51.52;96758.69;4208185;28;5732;-63
2023/09/23 04:46:36;;;;;;;;;;;;;;;18.20;51.51;96762.66;4224246;28;5804;-64
2023/09/23 04:48:39;;;;;;;;;;;;;;;18.21;51.54;96758.94;4226949;28;6327;-63
2023/09/23 04:50:46;;;;;;;;;;;;;;;18.19;51.42;96769.06;4225410;28;6284;-63
2023/09/23 04:52:50;;;;;;;;;;;;;;;18.19;51.49;96764.53;4226514;28;6023;-64
2023/09/23 04:54:53;;;;;;;;;;;;;;;18.21;51.31;96770.44;4207045;28;5735;-65
2023/09/23 04:56:56;;;;;;;;;;;;;;;18.21;51.44;96766.94;4208550;28;5702;-65
2023/09/23 04:59:00;;;;;;;;;;;;;;;18.21;51.32;96772.31;4209690;28;5780;-65
2023/09/23 05:01:05;;;;;;;;;;;;;;;18.21;51.32;96766.94;4210604;28;5766;-63
2023/09/23 05:03:09;;;;;;;;;;;;;;;18.22;51.21;96774.72;4205703;28;5861;-64
2023/09/23 05:05:13;;;;;;;;;;;;;;;18.24;51.13;96777.19;4206683;28;5748;-65
2023/09/23 05:07:16;;;;;;;;;;;;;;;18.24;51.14;96779.88;4208732;28;5605;-64
2023/09/23 05:09:19;;;;;;;;;;;;;;;18.26;51.02;96786.59;4208931;28;5645;-64
2023/09/23 05:11:24;;;;;;;;;;;;;;;18.27;50.94;96788.22;4208865;28;5943;-65
2023/09/23 05:13:29;;;;;;;;;;;;;;;18.29;50.93;96790.66;4206129;28;5826;-64
2023/09/23 05:15:33;;;;;;;;;;;;;;;18.29;50.84;96791.44;4208716;28;5834;-64
2023/09/23 05:17:37;;;;;;;;;;;;;;;18.30;50.86;96797.63;4208513;28;5994;-64
2023/09/23 05:19:39;;;;;;;;;;;;;;;18.31;50.85;96796.56;4206692;28;5349;-64
2023/09/23 05:21:42;;;;;;;;;;;;;;;18.32;50.73;96798.19;4209901;28;7672;-65
2023/09/23 05:23:48;;;;;;;;;;;;;;;18.32;50.74;96803.53;4208189;28;5811;-64
2023/09/23 05:25:50;;;;;;;;;;;;;;;18.33;50.64;96799.81;4206272;28;7496;-64
2023/09/23 05:27:54;;;;;;;;;;;;;;;18.32;50.60;96800.84;4210237;28;5700;-65
2023/09/23 05:29:58;;;;;;;;;;;;;;;18.32;50.54;96800.84;4207213;28;5612;-64
2023/09/23 05:32:03;;;;;;;;;;;;;;;18.32;50.36;96800.84;4209217;28;5621;-65
2023/09/23 05:34:06;;;;;;;;;;;;;;;18.32;50.37;96807.00;4208479;28;5826;-65
2023/09/23 05:36:10;;;;;;;;;;;;;;;18.32;50.59;96811.56;4211231;28;5750;-65
2023/09/23 05:38:13;;;;;;;;;;;;;;;18.30;50.32;96819.03;4216866;28;7687;-64
2023/09/23 05:40:27;;;;;;;;;;;;;;;18.28;50.31;96816.59;4216943;28;5656;-64
2023/09/23 05:42:31;;;;;;;;;;;;;;;18.28;50.13;96821.13;4217218;28;5681;-65
2023/09/23 05:44:33;;;;;;;;;;;;;;;18.29;50.18;96828.09;4213046;28;5716;-65
2023/09/23 05:46:37;;;;;;;;;;;;;;;18.29;50.36;96828.09;4208105;28;5601;-65
2023/09/23 05:48:42;;;;;;;;;;;;;;;18.31;50.18;96836.69;4207426;28;5854;-64
2023/09/23 05:50:45;;;;;;;;;;;;;;;18.32;50.14;96828.44;4208578;28;6807;-64
2023/09/23 05:52:48;;;;;;;;;;;;;;;18.32;50.13;96832.97;4206393;28;5831;-64
2023/09/23 05:54:51;;;;;;;;;;;;;;;18.31;50.18;96829.47;4208548;28;5780;-64
2023/09/23 05:56:53;;;;;;;;;;;;;;;18.30;49.99;96835.88;4211378;28;5715;-65
2023/09/23 05:58:56;;;;;;;;;;;;;;;18.30;49.97;96837.75;4215333;28;5760;-66
2023/09/23 06:00:59;;;;;;;;;;;;;;;18.29;50.00;96844.16;4217140;28;5817;-64
2023/09/23 06:03:02;;;;;;;;;;;;;;;18.28;49.87;96839.88;4213459;28;5743;-64
2023/09/23 06:05:08;;;;;;;;;;;;;;;18.28;49.76;96854.06;4218321;28;5815;-64
2023/09/23 06:07:11;;;;;;;;;;;;;;;18.26;49.58;96850.00;4218124;28;5680;-64
2023/09/23 06:09:15;;;;;;;;;;;;;;;18.26;49.75;96850.00;4209602;28;5703;-66
2023/09/23 06:11:18;;;;;;;;;;;;;;;18.23;49.58;96850.47;4218484;28;5613;-65
2023/09/23 06:13:21;;;;;;;;;;;;;;;18.22;49.77;96851.50;4218228;28;5612;-65
2023/09/23 06:15:23;;;;;;;;;;;;;;;18.20;49.54;96846.41;4217983;28;5818;-65
2023/09/23 06:17:27;;;;;;;;;;;;;;;18.19;49.63;96854.69;4209913;28;5767;-65
2023/09/23 06:19:33;;;;;;;;;;;;;;;18.17;49.48;96862.13;4217923;28;5669;-65
2023/09/23 06:21:37;;;;;;;;;;;;;;;18.16;49.59;96860.53;4217702;28;5704;-65
2023/09/23 06:23:40;;;;;;;;;;;;;;;18.17;49.53;96864.81;4218276;28;5712;-63
2023/09/23 06:25:43;;;;;;;;;;;;;;;18.15;49.50;96858.91;4217577;28;5822;-64
2023/09/23 06:27:46;;;;;;;;;;;;;;;18.13;49.63;96866.34;4217840;28;5779;-63
2023/09/23 06:29:49;;;;;;;;;;;;;;;18.13;49.44;96869.03;4217885;28;5605;-64
2023/09/23 06:31:54;;;;;;;;;;;;;;;18.10;49.34;96870.28;4217866;28;5096;-64
2023/09/23 06:33:56;;;;;;;;;;;;;;;17.98;49.29;96875.69;4217662;28;6395;-64
2023/09/23 06:36:03;;;;;;;;;;;;;;;17.87;49.62;96879.22;4217468;28;5791;-64
2023/09/23 06:38:07;;;;;;;;;;;;;;;17.90;49.74;96876.09;4217295;28;5891;-64
2023/09/23 06:40:09;;;;;;;;;;;;;;;17.89;49.69;96882.47;4206313;28;5627;-64
2023/09/23 06:42:12;;;;;;;;;;;;;;;17.93;49.43;96888.97;4206751;28;5081;-64
2023/09/23 06:44:14;;;;;;;;;;;;;;;17.91;49.62;96879.56;4215595;28;5747;-64
2023/09/23 06:46:17;;;;;;;;;;;;;;;17.93;49.66;96880.94;4216241;28;5705;-64
2023/09/23 06:48:20;;;;;;;;;;;;;;;17.97;49.53;96889.31;4217411;28;5165;-65
2023/09/23 06:50:23;;;;;;;;;;;;;;;18.00;49.55;96889.63;4217808;28;8517;-65
2023/09/23 06:52:25;;;;;;;;;;;;;;;18.02;49.38;96892.09;4217254;28;5771;-64
2023/09/23 06:54:30;;;;;;;;;;;;;;;18.04;49.24;96893.47;4217233;28;6068;-64
2023/09/23 06:56:34;;;;;;;;;;;;;;;18.06;49.27;96897.78;4217116;28;6493;-64
2023/09/23 06:58:37;;;;;;;;;;;;;;;18.06;49.08;96901.25;4217476;28;5621;-65
2023/09/23 07:00:39;;;;;;;;;;;;;;;18.01;49.17;96899.31;4209229;28;6489;-64
2023/09/23 07:02:42;;;;;;;;;;;;;;;18.06;49.30;96900.44;4217036;28;5613;-65
2023/09/23 07:04:45;;;;;;;;;;;;;;;18.12;49.29;96902.16;4217364;28;5907;-64
2023/09/23 07:06:48;;;;;;;;;;;;;;;18.16;49.20;96906.81;4217305;28;5700;-65
2023/09/23 07:08:51;;;;;;;;;;;;;;;18.21;49.19;96906.91;4216893;28;5657;-65
2023/09/23 07:10:56;;;;;;;;;;;;;;;18.24;49.10;96905.63;4217161;28;5636;-65
2023/09/23 07:12:59;;;;;;;;;;;;;;;18.28;49.20;96901.41;4217004;28;5707;-64
2023/09/23 07:15:01;;;;;;;;;;;;;;;18.32;49.09;96905.22;4217021;28;5720;-64
2023/09/23 07:17:06;;;;;;;;;;;;;;;18.34;49.03;96908.47;4217172;28;5724;-64
2023/09/23 07:19:10;;;;;;;;;;;;;;;18.37;49.10;96909.88;4217195;28;5783;-64
2023/09/23 07:21:13;;;;;;;;;;;;;;;18.40;48.97;96920.91;4212878;28;5779;-64
2023/09/23 07:23:16;;;;;;;;;;;;;;;18.42;48.89;96923.34;4213939;28;5649;-64
2023/09/23 07:25:19;;;;;;;;;;;;;;;18.43;48.93;96930.31;4216605;28;5711;-65
2023/09/23 07:27:24;;;;;;;;;;;;;;;18.48;48.92;96925.06;4216574;28;5788;-64
2023/09/23 07:29:26;;;;;;;;;;;;;;;18.53;48.84;96931.31;4214512;28;5653;-64
2023/09/23 07:31:29;;;;;;;;;;;;;;;18.55;48.77;96931.88;4216341;28;5645;-64
2023/09/23 07:33:32;;;;;;;;;;;;;;;18.57;48.76;96939.69;4201157;28;5719;-64
2023/09/23 07:35:36;;;;;;;;;;;;;;;18.56;48.57;96933.50;4216697;28;6368;-64
2023/09/23 07:37:39;;;;;;;;;;;;;;;18.58;48.79;96935.97;4214568;28;5653;-64
2023/09/23 07:39:41;;;;;;;;;;;;;;;18.59;48.72;96943.75;4213857;28;5812;-65
2023/09/23 07:41:44;;;;;;;;;;;;;;;18.64;48.64;96953.78;4207357;28;5612;-64
2023/09/23 07:43:49;;;;;;;;;;;;;;;18.67;48.52;96952.47;4211298;28;5710;-65
2023/09/23 07:45:52;;;;;;;;;;;;;;;18.70;48.60;96954.69;4212759;28;5776;-64
2023/09/23 07:47:55;;;;;;;;;;;;;;;18.72;48.76;96945.34;4215838;28;5768;-64
2023/09/23 07:49:59;;;;;;;;;;;;;;;18.75;48.53;96954.75;4216378;28;5744;-63
2023/09/23 07:52:01;;;;;;;;;;;;;;;18.76;48.36;96959.06;4215671;28;5768;-64
2023/09/23 07:54:04;;;;;;;;;;;;;;;18.77;48.43;96971.41;4210910;28;5785;-63
2023/09/23 07:56:06;;;;;;;;;;;;;;;18.74;48.52;96969.22;4209500;28;5700;-65
2023/09/23 07:58:09;;;;;;;;;;;;;;;18.73;48.50;96972.94;4206899;28;5738;-63
2023/09/23 08:00:14;;;;;;;;;;;;;;;18.73;48.50;96968.41;4207198;28;5753;-63
2023/09/23 08:02:17;;;;;;;;;;;;;;;18.73;48.61;96971.06;4201023;28;5081;-64
2023/09/23 08:04:20;;;;;;;;;;;;;;;18.74;48.70;96974.56;4210971;28;5629;-64
2023/09/23 08:06:22;;;;;;;;;;;;;;;18.77;48.79;96979.44;4203175;28;5707;-64
2023/09/23 08:08:25;;;;;;;;;;;;;;;18.79;48.90;96982.69;4210576;28;5672;-64
2023/09/23 08:10:28;;;;;;;;;;;;;;;18.78;48.66;96986.41;4215694;28;5828;-64
2023/09/23 08:12:34;;;;;;;;;;;;;;;18.79;48.76;96988.03;4215350;28;5695;-63
2023/09/23 08:14:37;;;;;;;;;;;;;;;18.81;48.75;96992.13;4208967;28;5652;-63
2023/09/23 08:16:41;;;;;;;;;;;;;;;18.83;48.87;96997.22;4209192;28;5798;-64
2023/09/23 08:18:44;;;;;;;;;;;;;;;18.85;48.60;97000.47;4214845;28;5621;-64
2023/09/23 08:20:47;;;;;;;;;;;;;;;18.87;48.65;97001.03;4209576;28;5776;-64
2023/09/23 08:22:50;;;;;;;;;;;;;;;18.85;48.59;97011.19;4206691;28;6312;-64
2023/09/23 08:24:53;;;;;;;;;;;;;;;18.86;48.69;97015.50;4206269;28;5809;-63
2023/09/23 08:26:56;;;;;;;;;;;;;;;18.87;48.93;97012.56;4207404;28;6489;-64
2023/09/23 08:28:59;;;;;;;;;;;;;;;18.90;48.84;97006.72;4200602;28;5756;-65
2023/09/23 08:31:02;;;;;;;;;;;;;;;18.93;48.94;97010.81;4207456;28;5706;-66
2023/09/23 08:33:07;;;;;;;;;;;;;;;18.95;48.79;97014.06;4207141;28;5813;-65
2023/09/23 08:35:10;;;;;;;;;;;;;;;18.97;48.85;97011.13;4213553;28;5632;-66
2023/09/23 08:37:13;;;;;;;;;;;;;;;19.01;48.84;97013.09;4215653;28;5728;-66
2023/09/23 08:39:16;;;;;;;;;;;;;;;19.06;48.94;97020.41;4208238;28;5730;-66
2023/09/23 08:41:22;;;;;;;;;;;;;;;19.09;48.88;97020.72;4212607;28;5744;-65
2023/09/23 08:43:36;;;;;;;;;;;;;;;19.11;49.08;97023.97;4188056;28;5734;-65
2023/09/23 08:45:43;;;;;;;;;;;;;;;19.16;48.84;97016.03;4207634;28;5703;-66
2023/09/23 08:47:47;;;;;;;;;;;;;;;19.19;49.08;97020.09;4202833;28;6384;-66
2023/09/23 08:49:53;;;;;;;;;;;;;;;19.20;48.73;97019.84;4203380;28;5699;-66
2023/09/23 08:51:56;;;;;;;;;;;;;;;19.24;49.11;97022.84;4211018;28;5763;-66
2023/09/23 08:54:00;;;;;;;;;;;;;;;19.26;48.87;97025.31;4210962;28;5730;-66
2023/09/23 08:56:04;;;;;;;;;;;;;;;19.30;48.88;97031.81;4213181;28;6542;-66
2023/09/23 08:58:06;;;;;;;;;;;;;;;19.30;48.89;97032.63;4214947;28;5684;-66
2023/09/23 09:00:13;;;;;;;;;;;;;;;19.32;49.07;97032.38;4209389;28;6314;-66
2023/09/23 09:02:16;;;;;;;;;;;;;;;19.36;48.79;97030.81;4214368;28;5696;-66
2023/09/23 09:04:19;;;;;;;;;;;;;;;19.38;49.09;97028.75;4210986;28;5637;-66
2023/09/23 09:06:29;;;;;;;;;;;;;;;19.41;49.01;97028.25;4207868;28;5834;-66
2023/09/23 09:08:32;;;;;;;;;;;;;;;19.42;49.00;97035.22;4206630;28;5898;-66
2023/09/23 09:10:35;;;;;;;;;;;;;;;19.44;49.08;97025.06;4211232;28;5633;-66
2023/09/23 09:12:38;;;;;;;;;;;;;;;19.46;49.08;97025.63;4213825;28;5613;-66
2023/09/23 09:14:39;;;;;;;;;;;;;;;19.51;48.85;97028.41;4206965;28;5789;-66
2023/09/23 09:16:43;;;;;;;;;;;;;;;19.54;48.96;97033.28;4213586;28;5914;-66
2023/09/23 09:18:46;;;;;;;;;;;;;;;19.55;48.94;97028.72;4208225;28;5688;-66
2023/09/23 09:20:49;;;;;;;;;;;;;;;19.56;49.00;97027.69;4215466;28;5628;-65
2023/09/23 09:22:53;;;;;;;;;;;;;;;19.56;49.24;97031.19;4202774;28;5783;-65
2023/09/23 09:24:56;;;;;;;;;;;;;;;19.57;49.09;97040.84;4204777;28;6302;-66
2023/09/23 09:26:59;;;;;;;;;;;;;;;19.58;49.08;97034.44;4210127;28;5703;-65
2023/09/23 09:29:02;;;;;;;;;;;;;;;19.58;49.10;97034.44;4208537;28;5857;-65
2023/09/23 09:31:10;;;;;;;;;;;;;;;19.59;48.98;97030.69;4208670;28;5695;-65
2023/09/23 09:33:16;;;;;;;;;;;;;;;19.58;48.92;97039.78;4212564;28;5779;-65
2023/09/23 09:35:20;;;;;;;;;;;;;;;19.57;49.13;97038.16;4213281;28;5707;-66
2023/09/23 09:37:27;;;;;;;;;;;;;;;19.56;48.92;97041.91;4217855;28;6433;-66
2023/09/23 09:39:36;;;;;;;;;;;;;;;19.54;49.15;97038.63;4211113;28;5700;-65
2023/09/23 09:41:46;;;;;;;;;;;;;;;19.54;49.00;97037.81;4213964;28;5695;-66
2023/09/23 09:43:50;;;;;;;;;;;;;;;19.55;49.03;97044.81;4207247;28;5687;-66
2023/09/23 09:45:55;;;;;;;;;;;;;;;19.54;49.09;97044.00;4210793;28;5856;-66
2023/09/23 09:48:00;;;;;;;;;;;;;;;19.54;49.06;97037.81;4213713;28;5696;-66
2023/09/23 09:50:05;;;;;;;;;;;;;;;19.56;48.99;97038.41;4210604;28;5714;-66
2023/09/23 09:52:09;;;;;;;;;;;;;;;19.57;49.04;97042.72;4213638;28;5770;-67
2023/09/23 09:54:14;;;;;;;;;;;;;;;19.55;49.22;97042.97;4208645;28;5597;-66
2023/09/23 09:56:19;;;;;;;;;;;;;;;19.57;49.17;97048.09;4208993;28;5699;-66
2023/09/23 09:58:26;;;;;;;;;;;;;;;19.58;48.82;97049.72;4209021;28;6619;-67
2023/09/23 10:00:30;;;;;;;;;;;;;;;19.58;48.91;97042.47;4203515;28;6392;-66
2023/09/23 10:02:34;;;;;;;;;;;;;;;19.59;48.99;97036.06;4210541;28;5712;-65
2023/09/23 10:04:37;;;;;;;;;;;;;;;19.60;49.01;97035.03;4209282;28;5687;-65
2023/09/23 10:06:39;;;;;;;;;;;;;;;19.61;48.65;97039.31;4210525;28;5763;-65
2023/09/23 10:08:45;;;;;;;;;;;;;;;19.61;48.88;97033.97;4204182;28;5722;-65
2023/09/23 10:10:50;;;;;;;;;;;;;;;19.64;48.79;97038.03;4208079;28;5774;-64
2023/09/23 10:12:58;;;;;;;;;;;;;;;19.66;48.64;97046.63;4205285;28;5708;-65
2023/09/23 10:15:03;;;;;;;;;;;;;;;19.66;48.90;97039.41;4205977;28;6034;-70
2023/09/23 10:17:07;;;;;;;;;;;;;;;19.67;48.51;97035.66;4210514;28;7711;-72
2023/09/23 10:19:11;;;;;;;;;;;;;;;19.66;48.46;97036.72;4214117;28;6401;-67
2023/09/23 10:21:23;;;;;;;;;;;;;;;19.68;48.72;97039.16;4210051;28;5786;-68
2023/09/23 10:23:26;;;;;;;;;;;;;;;19.70;48.84;97037.03;4208601;28;5810;-67
2023/09/23 10:25:37;;;;;;;;;;;;;;;19.72;48.34;97025.03;4210493;28;6438;-67
2023/09/23 10:27:56;;;;;;;;;;;;;;;19.75;48.48;97035.25;4212091;28;5696;-67
2023/09/23 10:30:00;;;;;;;;;;;;;;;19.76;48.23;97036.06;4206134;28;5823;-68
2023/09/23 10:32:11;;;;;;;;;;;;;;;19.74;48.52;97036.31;4203091;28;5778;-68
2023/09/23 10:34:14;;;;;;;;;;;;;;;19.75;48.42;97029.88;4192529;28;5745;-70
2023/09/23 10:36:21;;;;;;;;;;;;;;;19.75;48.60;97037.94;4192431;28;5640;-68
2023/09/23 10:38:24;;;;;;;;;;;;;;;19.78;48.36;97036.63;4216636;28;5841;-68
2023/09/23 10:40:27;;;;;;;;;;;;;;;19.78;48.42;97029.38;4205395;28;6041;-68
2023/09/23 10:42:33;;;;;;;;;;;;;;;19.77;48.04;97038.50;4216406;28;5713;-68
2023/09/23 10:44:35;;;;;;;;;;;;;;;19.76;47.99;97028.81;4217630;28;5683;-68
2023/09/23 10:46:39;;;;;;;;;;;;;;;19.79;47.74;97024.84;4198375;28;5544;-70
2023/09/23 10:48:42;;;;;;;;;;;;;;;19.81;47.97;97025.38;4209071;28;5700;-69
2023/09/23 10:50:45;;;;;;;;;;;;;;;19.86;47.99;97025.47;4208659;28;5731;-69
2023/09/23 10:52:48;;;;;;;;;;;;;;;19.92;48.18;97029.84;4211604;28;5739;-70
2023/09/23 10:54:51;;;;;;;;;;;;;;;19.97;47.60;97037.19;4214210;28;5668;-72
2023/09/23 10:56:54;;;;;;;;;;;;;;;20.01;47.89;97032.94;4216220;28;5687;-72